sensor_id;sensor_type;location;lat;lon;timestamp;P1;durP1;ratioP1;P2;durP2;ratioP2
10293;SDS011;5192;50.328;7.610;2022-07-18T00:02:13;1.57;;;1.40;;
10293;SDS011;5192;50.328;7.610;2022-07-18T00:04:40;2.80;;;1.50;;
10293;SDS011;5192;50.328;7.610;2022-07-18T00:07:09;1.47;;;1.33;;
10293;SDS011;5192;50.328;7.610;2022-07-18T00:09:38;1.40;;;1.30;;
10293;SDS011;5192;50.328;7.610;2022-07-18T00:12:06;1.97;;;1.17;;
10293;SDS011;5192;50.328;7.610;2022-07-18T00:14:33;1.40;;;1.30;;
10293;SDS011;5192;50.328;7.610;2022-07-18T00:17:01;1.73;;;1.30;;
10293;SDS011;5192;50.328;7.610;2022-07-18T00:19:29;1.30;;;1.17;;
10293;SDS011;5192;50.328;7.610;2022-07-18T00:21:56;1.33;;;1.23;;
10293;SDS011;5192;50.328;7.610;2022-07-18T00:24:25;1.77;;;1.30;;
10293;SDS011;5192;50.328;7.610;2022-07-18T00:26:51;2.30;;;1.50;;
10293;SDS011;5192;50.328;7.610;2022-07-18T00:29:19;1.77;;;1.23;;
10293;SDS011;5192;50.328;7.610;2022-07-18T00:31:45;2.73;;;1.40;;
10293;SDS011;5192;50.328;7.610;2022-07-18T00:34:13;2.10;;;1.37;;
10293;SDS011;5192;50.328;7.610;2022-07-18T00:36:40;1.57;;;1.20;;
10293;SDS011;5192;50.328;7.610;2022-07-18T00:39:08;1.40;;;1.30;;
10293;SDS011;5192;50.328;7.610;2022-07-18T00:41:34;2.00;;;1.40;;
10293;SDS011;5192;50.328;7.610;2022-07-18T00:43:59;2.37;;;1.67;;
10293;SDS011;5192;50.328;7.610;2022-07-18T00:46:28;3.17;;;1.40;;
10293;SDS011;5192;50.328;7.610;2022-07-18T00:48:55;2.33;;;1.27;;
10293;SDS011;5192;50.328;7.610;2022-07-18T00:51:22;1.77;;;1.40;;
10293;SDS011;5192;50.328;7.610;2022-07-18T00:53:49;1.77;;;1.20;;
10293;SDS011;5192;50.328;7.610;2022-07-18T00:56:16;1.67;;;1.37;;
10293;SDS011;5192;50.328;7.610;2022-07-18T00:58:44;1.60;;;1.20;;
10293;SDS011;5192;50.328;7.610;2022-07-18T01:01:12;1.50;;;1.40;;
10293;SDS011;5192;50.328;7.610;2022-07-18T01:03:58;1.80;;;1.43;;
10293;SDS011;5192;50.328;7.610;2022-07-18T01:06:26;2.83;;;1.47;;
10293;SDS011;5192;50.328;7.610;2022-07-18T01:08:53;2.60;;;1.53;;
10293;SDS011;5192;50.328;7.610;2022-07-18T01:11:23;2.30;;;1.40;;
10293;SDS011;5192;50.328;7.610;2022-07-18T01:13:49;1.73;;;1.37;;
10293;SDS011;5192;50.328;7.610;2022-07-18T01:16:16;2.00;;;1.50;;
10293;SDS011;5192;50.328;7.610;2022-07-18T01:18:47;2.13;;;1.50;;
10293;SDS011;5192;50.328;7.610;2022-07-18T01:21:15;3.03;;;1.60;;
10293;SDS011;5192;50.328;7.610;2022-07-18T01:23:43;1.50;;;1.10;;
10293;SDS011;5192;50.328;7.610;2022-07-18T01:26:11;1.80;;;1.70;;
10293;SDS011;5192;50.328;7.610;2022-07-18T01:28:39;3.17;;;1.37;;
10293;SDS011;5192;50.328;7.610;2022-07-18T01:31:10;1.80;;;1.30;;
10293;SDS011;5192;50.328;7.610;2022-07-18T01:33:37;1.43;;;1.20;;
10293;SDS011;5192;50.328;7.610;2022-07-18T01:36:04;2.77;;;1.30;;
10293;SDS011;5192;50.328;7.610;2022-07-18T01:38:32;1.97;;;1.40;;
10293;SDS011;5192;50.328;7.610;2022-07-18T01:41:00;2.50;;;1.60;;
10293;SDS011;5192;50.328;7.610;2022-07-18T01:43:28;3.00;;;1.50;;
10293;SDS011;5192;50.328;7.610;2022-07-18T01:45:53;1.80;;;1.40;;
10293;SDS011;5192;50.328;7.610;2022-07-18T01:48:21;2.57;;;1.47;;
10293;SDS011;5192;50.328;7.610;2022-07-18T01:50:49;2.53;;;1.40;;
10293;SDS011;5192;50.328;7.610;2022-07-18T01:53:16;3.30;;;1.40;;
10293;SDS011;5192;50.328;7.610;2022-07-18T01:55:42;1.50;;;1.37;;
10293;SDS011;5192;50.328;7.610;2022-07-18T01:58:11;1.40;;;1.30;;
10293;SDS011;5192;50.328;7.610;2022-07-18T02:00:36;2.23;;;1.40;;
10293;SDS011;5192;50.328;7.610;2022-07-18T02:03:04;2.67;;;1.30;;
10293;SDS011;5192;50.328;7.610;2022-07-18T02:05:31;2.10;;;1.30;;
10293;SDS011;5192;50.328;7.610;2022-07-18T02:08:00;2.20;;;1.37;;
10293;SDS011;5192;50.328;7.610;2022-07-18T02:10:28;4.23;;;1.40;;
10293;SDS011;5192;50.328;7.610;2022-07-18T02:12:56;1.73;;;1.20;;
10293;SDS011;5192;50.328;7.610;2022-07-18T02:15:23;2.07;;;1.30;;
10293;SDS011;5192;50.328;7.610;2022-07-18T02:17:49;1.67;;;1.40;;
10293;SDS011;5192;50.328;7.610;2022-07-18T02:20:16;1.47;;;1.30;;
10293;SDS011;5192;50.328;7.610;2022-07-18T02:22:42;2.53;;;1.20;;
10293;SDS011;5192;50.328;7.610;2022-07-18T02:25:08;1.30;;;1.20;;
10293;SDS011;5192;50.328;7.610;2022-07-18T02:27:36;1.50;;;1.30;;
10293;SDS011;5192;50.328;7.610;2022-07-18T02:30:03;2.03;;;1.20;;
10293;SDS011;5192;50.328;7.610;2022-07-18T02:32:30;2.27;;;1.30;;
10293;SDS011;5192;50.328;7.610;2022-07-18T02:34:57;3.63;;;1.60;;
10293;SDS011;5192;50.328;7.610;2022-07-18T02:37:23;3.63;;;1.40;;
10293;SDS011;5192;50.328;7.610;2022-07-18T02:39:51;3.53;;;1.37;;
10293;SDS011;5192;50.328;7.610;2022-07-18T02:42:17;1.73;;;1.50;;
10293;SDS011;5192;50.328;7.610;2022-07-18T02:44:45;3.50;;;1.30;;
10293;SDS011;5192;50.328;7.610;2022-07-18T02:47:13;2.23;;;1.17;;
10293;SDS011;5192;50.328;7.610;2022-07-18T02:49:39;2.67;;;1.43;;
10293;SDS011;5192;50.328;7.610;2022-07-18T02:52:08;1.70;;;1.10;;
10293;SDS011;5192;50.328;7.610;2022-07-18T02:54:34;1.43;;;1.20;;
10293;SDS011;5192;50.328;7.610;2022-07-18T02:57:03;2.57;;;1.50;;
10293;SDS011;5192;50.328;7.610;2022-07-18T02:59:31;2.30;;;1.20;;
10293;SDS011;5192;50.328;7.610;2022-07-18T03:02:00;1.70;;;1.50;;
10293;SDS011;5192;50.328;7.610;2022-07-18T03:04:26;1.40;;;1.23;;
10293;SDS011;5192;50.328;7.610;2022-07-18T03:06:54;3.50;;;1.50;;
10293;SDS011;5192;50.328;7.610;2022-07-18T03:09:21;2.20;;;1.63;;
10293;SDS011;5192;50.328;7.610;2022-07-18T03:11:53;2.50;;;1.40;;
10293;SDS011;5192;50.328;7.610;2022-07-18T03:14:21;2.37;;;1.50;;
10293;SDS011;5192;50.328;7.610;2022-07-18T03:16:48;1.47;;;1.37;;
10293;SDS011;5192;50.328;7.610;2022-07-18T03:19:15;2.10;;;1.40;;
10293;SDS011;5192;50.328;7.610;2022-07-18T03:21:42;2.57;;;1.30;;
10293;SDS011;5192;50.328;7.610;2022-07-18T03:24:08;7.67;;;5.67;;
10293;SDS011;5192;50.328;7.610;2022-07-18T03:26:37;4.00;;;3.10;;
10293;SDS011;5192;50.328;7.610;2022-07-18T03:29:04;3.20;;;2.23;;
10293;SDS011;5192;50.328;7.610;2022-07-18T03:31:31;5.23;;;2.43;;
10293;SDS011;5192;50.328;7.610;2022-07-18T03:33:57;3.00;;;2.30;;
10293;SDS011;5192;50.328;7.610;2022-07-18T03:36:25;2.00;;;1.50;;
10293;SDS011;5192;50.328;7.610;2022-07-18T03:38:51;2.37;;;1.40;;
10293;SDS011;5192;50.328;7.610;2022-07-18T03:41:19;1.80;;;1.43;;
10293;SDS011;5192;50.328;7.610;2022-07-18T03:43:44;1.73;;;1.20;;
10293;SDS011;5192;50.328;7.610;2022-07-18T03:46:11;2.80;;;1.47;;
10293;SDS011;5192;50.328;7.610;2022-07-18T03:48:40;2.10;;;1.30;;
10293;SDS011;5192;50.328;7.610;2022-07-18T03:51:07;2.30;;;1.50;;
10293;SDS011;5192;50.328;7.610;2022-07-18T03:53:33;2.57;;;2.10;;
10293;SDS011;5192;50.328;7.610;2022-07-18T03:55:59;3.73;;;1.80;;
10293;SDS011;5192;50.328;7.610;2022-07-18T03:58:26;2.00;;;1.63;;
10293;SDS011;5192;50.328;7.610;2022-07-18T04:00:52;1.87;;;1.67;;
10293;SDS011;5192;50.328;7.610;2022-07-18T04:03:19;2.10;;;1.60;;
10293;SDS011;5192;50.328;7.610;2022-07-18T04:05:45;3.00;;;1.77;;
10293;SDS011;5192;50.328;7.610;2022-07-18T04:08:14;2.70;;;1.70;;
10293;SDS011;5192;50.328;7.610;2022-07-18T04:10:41;1.77;;;1.30;;
10293;SDS011;5192;50.328;7.610;2022-07-18T04:13:08;2.03;;;1.60;;
10293;SDS011;5192;50.328;7.610;2022-07-18T04:15:34;1.97;;;1.53;;
10293;SDS011;5192;50.328;7.610;2022-07-18T04:18:02;2.53;;;1.50;;
10293;SDS011;5192;50.328;7.610;2022-07-18T04:20:28;1.63;;;1.53;;
10293;SDS011;5192;50.328;7.610;2022-07-18T04:22:58;3.20;;;1.90;;
10293;SDS011;5192;50.328;7.610;2022-07-18T04:25:27;2.43;;;1.90;;
10293;SDS011;5192;50.328;7.610;2022-07-18T04:28:00;2.40;;;1.33;;
10293;SDS011;5192;50.328;7.610;2022-07-18T04:30:28;2.30;;;1.80;;
10293;SDS011;5192;50.328;7.610;2022-07-18T04:32:55;2.03;;;1.60;;
10293;SDS011;5192;50.328;7.610;2022-07-18T04:35:23;3.03;;;1.83;;
10293;SDS011;5192;50.328;7.610;2022-07-18T04:37:49;1.77;;;1.60;;
10293;SDS011;5192;50.328;7.610;2022-07-18T04:40:17;2.50;;;1.70;;
10293;SDS011;5192;50.328;7.610;2022-07-18T04:42:43;3.00;;;1.67;;
10293;SDS011;5192;50.328;7.610;2022-07-18T04:45:13;1.40;;;1.30;;
10293;SDS011;5192;50.328;7.610;2022-07-18T04:47:39;3.97;;;2.10;;
10293;SDS011;5192;50.328;7.610;2022-07-18T04:50:07;2.23;;;1.57;;
10293;SDS011;5192;50.328;7.610;2022-07-18T04:52:41;1.80;;;1.53;;
10293;SDS011;5192;50.328;7.610;2022-07-18T04:55:11;4.97;;;1.90;;
10293;SDS011;5192;50.328;7.610;2022-07-18T04:57:38;3.87;;;2.73;;
10293;SDS011;5192;50.328;7.610;2022-07-18T05:00:12;2.67;;;2.00;;
10293;SDS011;5192;50.328;7.610;2022-07-18T05:02:42;2.47;;;1.77;;
10293;SDS011;5192;50.328;7.610;2022-07-18T05:05:10;3.83;;;1.70;;
10293;SDS011;5192;50.328;7.610;2022-07-18T05:07:40;3.77;;;1.80;;
10293;SDS011;5192;50.328;7.610;2022-07-18T05:10:07;2.10;;;1.60;;
10293;SDS011;5192;50.328;7.610;2022-07-18T05:12:37;2.13;;;1.60;;
10293;SDS011;5192;50.328;7.610;2022-07-18T05:15:05;1.73;;;1.40;;
10293;SDS011;5192;50.328;7.610;2022-07-18T05:17:36;2.73;;;1.73;;
10293;SDS011;5192;50.328;7.610;2022-07-18T05:20:06;2.00;;;1.63;;
10293;SDS011;5192;50.328;7.610;2022-07-18T05:22:34;3.90;;;1.73;;
10293;SDS011;5192;50.328;7.610;2022-07-18T05:25:02;4.07;;;1.83;;
10293;SDS011;5192;50.328;7.610;2022-07-18T05:27:32;2.57;;;1.70;;
10293;SDS011;5192;50.328;7.610;2022-07-18T05:29:59;3.80;;;1.77;;
10293;SDS011;5192;50.328;7.610;2022-07-18T05:32:27;2.93;;;1.70;;
10293;SDS011;5192;50.328;7.610;2022-07-18T05:34:53;2.90;;;1.80;;
10293;SDS011;5192;50.328;7.610;2022-07-18T05:37:19;2.87;;;1.90;;
10293;SDS011;5192;50.328;7.610;2022-07-18T05:39:50;2.63;;;1.83;;
10293;SDS011;5192;50.328;7.610;2022-07-18T05:42:18;2.80;;;2.10;;
10293;SDS011;5192;50.328;7.610;2022-07-18T05:44:50;3.53;;;1.70;;
10293;SDS011;5192;50.328;7.610;2022-07-18T05:47:16;3.57;;;2.07;;
10293;SDS011;5192;50.328;7.610;2022-07-18T05:49:43;4.17;;;1.83;;
10293;SDS011;5192;50.328;7.610;2022-07-18T05:52:10;3.00;;;1.93;;
10293;SDS011;5192;50.328;7.610;2022-07-18T05:54:45;2.80;;;2.00;;
10293;SDS011;5192;50.328;7.610;2022-07-18T05:57:13;2.87;;;1.90;;
10293;SDS011;5192;50.328;7.610;2022-07-18T05:59:41;3.87;;;1.83;;
10293;SDS011;5192;50.328;7.610;2022-07-18T06:02:07;5.23;;;1.80;;
10293;SDS011;5192;50.328;7.610;2022-07-18T06:04:35;2.43;;;2.00;;
10293;SDS011;5192;50.328;7.610;2022-07-18T06:07:03;1.70;;;1.60;;
10293;SDS011;5192;50.328;7.610;2022-07-18T06:09:29;2.67;;;2.00;;
10293;SDS011;5192;50.328;7.610;2022-07-18T06:11:56;2.67;;;1.90;;
10293;SDS011;5192;50.328;7.610;2022-07-18T06:14:30;3.43;;;1.97;;
10293;SDS011;5192;50.328;7.610;2022-07-18T06:16:57;2.83;;;1.87;;
10293;SDS011;5192;50.328;7.610;2022-07-18T06:19:26;4.43;;;1.77;;
10293;SDS011;5192;50.328;7.610;2022-07-18T06:21:53;3.33;;;1.60;;
10293;SDS011;5192;50.328;7.610;2022-07-18T06:24:20;3.23;;;1.70;;
10293;SDS011;5192;50.328;7.610;2022-07-18T06:26:47;2.27;;;1.60;;
10293;SDS011;5192;50.328;7.610;2022-07-18T06:29:16;3.13;;;2.10;;
10293;SDS011;5192;50.328;7.610;2022-07-18T06:31:44;4.77;;;2.10;;
10293;SDS011;5192;50.328;7.610;2022-07-18T06:34:10;5.00;;;2.00;;
10293;SDS011;5192;50.328;7.610;2022-07-18T06:36:39;1.97;;;1.60;;
10293;SDS011;5192;50.328;7.610;2022-07-18T06:39:06;2.13;;;1.93;;
10293;SDS011;5192;50.328;7.610;2022-07-18T06:41:37;2.23;;;1.63;;
10293;SDS011;5192;50.328;7.610;2022-07-18T06:44:04;4.57;;;1.70;;
10293;SDS011;5192;50.328;7.610;2022-07-18T06:46:32;3.13;;;1.80;;
10293;SDS011;5192;50.328;7.610;2022-07-18T06:48:59;2.93;;;1.90;;
10293;SDS011;5192;50.328;7.610;2022-07-18T06:51:26;3.97;;;1.93;;
10293;SDS011;5192;50.328;7.610;2022-07-18T06:53:52;2.60;;;1.85;;
10293;SDS011;5192;50.328;7.610;2022-07-18T06:56:21;2.77;;;1.93;;
10293;SDS011;5192;50.328;7.610;2022-07-18T06:58:46;2.80;;;1.77;;
10293;SDS011;5192;50.328;7.610;2022-07-18T07:01:17;2.58;;;1.75;;
10293;SDS011;5192;50.328;7.610;2022-07-18T07:03:44;2.03;;;1.70;;
10293;SDS011;5192;50.328;7.610;2022-07-18T07:06:13;3.50;;;1.83;;
10293;SDS011;5192;50.328;7.610;2022-07-18T07:08:43;2.87;;;1.63;;
10293;SDS011;5192;50.328;7.610;2022-07-18T07:11:11;3.97;;;1.80;;
10293;SDS011;5192;50.328;7.610;2022-07-18T07:13:37;2.30;;;1.70;;
10293;SDS011;5192;50.328;7.610;2022-07-18T07:16:05;1.67;;;1.57;;
10293;SDS011;5192;50.328;7.610;2022-07-18T07:18:33;2.63;;;1.40;;
10293;SDS011;5192;50.328;7.610;2022-07-18T07:21:00;4.83;;;1.80;;
10293;SDS011;5192;50.328;7.610;2022-07-18T07:23:27;2.10;;;1.70;;
10293;SDS011;5192;50.328;7.610;2022-07-18T07:25:57;3.65;;;2.20;;
10293;SDS011;5192;50.328;7.610;2022-07-18T07:28:24;3.30;;;1.50;;
10293;SDS011;5192;50.328;7.610;2022-07-18T07:30:51;3.00;;;2.00;;
10293;SDS011;5192;50.328;7.610;2022-07-18T07:33:17;1.92;;;1.67;;
10293;SDS011;5192;50.328;7.610;2022-07-18T07:35:45;1.73;;;1.43;;
10293;SDS011;5192;50.328;7.610;2022-07-18T07:38:11;2.77;;;1.63;;
10293;SDS011;5192;50.328;7.610;2022-07-18T07:40:47;5.03;;;2.00;;
10293;SDS011;5192;50.328;7.610;2022-07-18T07:43:16;4.90;;;1.90;;
10293;SDS011;5192;50.328;7.610;2022-07-18T07:45:46;3.30;;;2.23;;
10293;SDS011;5192;50.328;7.610;2022-07-18T07:48:16;2.80;;;1.55;;
10293;SDS011;5192;50.328;7.610;2022-07-18T07:50:43;3.83;;;1.85;;
10293;SDS011;5192;50.328;7.610;2022-07-18T07:53:13;4.97;;;2.10;;
10293;SDS011;5192;50.328;7.610;2022-07-18T07:55:39;3.03;;;1.73;;
10293;SDS011;5192;50.328;7.610;2022-07-18T07:58:34;3.47;;;1.60;;
10293;SDS011;5192;50.328;7.610;2022-07-18T08:01:07;6.00;;;1.95;;
10293;SDS011;5192;50.328;7.610;2022-07-18T08:03:36;4.57;;;1.95;;
10293;SDS011;5192;50.328;7.610;2022-07-18T08:06:08;3.17;;;1.80;;
10293;SDS011;5192;50.328;7.610;2022-07-18T08:08:33;2.90;;;1.75;;
10293;SDS011;5192;50.328;7.610;2022-07-18T08:11:01;2.38;;;1.90;;
10293;SDS011;5192;50.328;7.610;2022-07-18T08:13:28;4.00;;;1.67;;
10293;SDS011;5192;50.328;7.610;2022-07-18T08:16:07;2.78;;;1.80;;
10293;SDS011;5192;50.328;7.610;2022-07-18T08:18:37;2.72;;;1.60;;
10293;SDS011;5192;50.328;7.610;2022-07-18T08:21:06;6.00;;;1.90;;
10293;SDS011;5192;50.328;7.610;2022-07-18T08:23:32;3.17;;;1.83;;
10293;SDS011;5192;50.328;7.610;2022-07-18T08:26:04;2.53;;;1.73;;
10293;SDS011;5192;50.328;7.610;2022-07-18T08:28:36;3.30;;;1.70;;
10293;SDS011;5192;50.328;7.610;2022-07-18T08:31:08;2.75;;;1.60;;
10293;SDS011;5192;50.328;7.610;2022-07-18T08:33:37;3.83;;;1.98;;
10293;SDS011;5192;50.328;7.610;2022-07-18T08:36:05;3.03;;;2.10;;
10293;SDS011;5192;50.328;7.610;2022-07-18T08:38:34;4.45;;;1.95;;
10293;SDS011;5192;50.328;7.610;2022-07-18T08:41:00;5.07;;;1.95;;
10293;SDS011;5192;50.328;7.610;2022-07-18T08:43:26;2.90;;;2.00;;
10293;SDS011;5192;50.328;7.610;2022-07-18T08:45:57;2.58;;;1.60;;
10293;SDS011;5192;50.328;7.610;2022-07-18T08:48:31;2.42;;;1.63;;
10293;SDS011;5192;50.328;7.610;2022-07-18T08:51:05;2.30;;;1.70;;
10293;SDS011;5192;50.328;7.610;2022-07-18T08:53:37;2.70;;;1.60;;
10293;SDS011;5192;50.328;7.610;2022-07-18T08:56:03;1.70;;;1.60;;
10293;SDS011;5192;50.328;7.610;2022-07-18T08:58:30;3.80;;;2.08;;
10293;SDS011;5192;50.328;7.610;2022-07-18T09:00:57;4.53;;;1.77;;
10293;SDS011;5192;50.328;7.610;2022-07-18T09:03:24;4.20;;;1.80;;
10293;SDS011;5192;50.328;7.610;2022-07-18T09:08:37;6.90;;;1.85;;
10293;SDS011;5192;50.328;7.610;2022-07-18T09:11:04;3.47;;;1.83;;
10293;SDS011;5192;50.328;7.610;2022-07-18T09:13:37;4.22;;;1.80;;
10293;SDS011;5192;50.328;7.610;2022-07-18T09:16:12;4.07;;;1.70;;
10293;SDS011;5192;50.328;7.610;2022-07-18T09:18:45;3.00;;;2.22;;
10293;SDS011;5192;50.328;7.610;2022-07-18T09:21:14;3.60;;;2.00;;
10293;SDS011;5192;50.328;7.610;2022-07-18T09:23:44;2.55;;;1.70;;
10293;SDS011;5192;50.328;7.610;2022-07-18T09:27:00;2.15;;;1.67;;
10293;SDS011;5192;50.328;7.610;2022-07-18T09:29:26;4.30;;;1.98;;
10293;SDS011;5192;50.328;7.610;2022-07-18T09:31:54;3.17;;;1.90;;
10293;SDS011;5192;50.328;7.610;2022-07-18T09:34:36;2.10;;;1.70;;
10293;SDS011;5192;50.328;7.610;2022-07-18T09:37:04;2.45;;;1.98;;
10293;SDS011;5192;50.328;7.610;2022-07-18T09:39:35;2.20;;;1.70;;
10293;SDS011;5192;50.328;7.610;2022-07-18T09:44:59;3.03;;;2.10;;
10293;SDS011;5192;50.328;7.610;2022-07-18T09:47:26;3.80;;;2.05;;
10293;SDS011;5192;50.328;7.610;2022-07-18T09:49:52;5.22;;;1.75;;
10293;SDS011;5192;50.328;7.610;2022-07-18T09:52:21;3.42;;;1.75;;
10293;SDS011;5192;50.328;7.610;2022-07-18T09:54:47;1.98;;;1.77;;
10293;SDS011;5192;50.328;7.610;2022-07-18T09:57:24;2.92;;;1.70;;
10293;SDS011;5192;50.328;7.610;2022-07-18T09:59:52;2.88;;;1.50;;
10293;SDS011;5192;50.328;7.610;2022-07-18T10:02:18;2.38;;;1.65;;
10293;SDS011;5192;50.328;7.610;2022-07-18T10:04:44;3.47;;;1.90;;
10293;SDS011;5192;50.328;7.610;2022-07-18T10:07:12;2.65;;;1.88;;
10293;SDS011;5192;50.328;7.610;2022-07-18T10:09:40;1.80;;;1.70;;
10293;SDS011;5192;50.328;7.610;2022-07-18T10:12:07;1.90;;;1.60;;
10293;SDS011;5192;50.328;7.610;2022-07-18T10:14:33;2.42;;;1.65;;
10293;SDS011;5192;50.328;7.610;2022-07-18T10:17:00;2.30;;;1.75;;
10293;SDS011;5192;50.328;7.610;2022-07-18T10:19:27;2.00;;;1.80;;
10293;SDS011;5192;50.328;7.610;2022-07-18T10:21:54;2.33;;;1.48;;
10293;SDS011;5192;50.328;7.610;2022-07-18T10:24:25;5.38;;;1.88;;
10293;SDS011;5192;50.328;7.610;2022-07-18T10:32:37;2.47;;;1.60;;
10293;SDS011;5192;50.328;7.610;2022-07-18T10:35:09;3.80;;;1.60;;
10293;SDS011;5192;50.328;7.610;2022-07-18T10:37:41;4.20;;;2.00;;
10293;SDS011;5192;50.328;7.610;2022-07-18T10:46:02;4.30;;;1.50;;
10293;SDS011;5192;50.328;7.610;2022-07-18T10:51:16;1.65;;;1.50;;
10293;SDS011;5192;50.328;7.610;2022-07-18T10:59:24;3.03;;;1.60;;
10293;SDS011;5192;50.328;7.610;2022-07-18T11:01:54;2.40;;;1.83;;
10293;SDS011;5192;50.328;7.610;2022-07-18T11:04:32;1.80;;;1.70;;
10293;SDS011;5192;50.328;7.610;2022-07-18T11:07:09;3.25;;;1.73;;
10293;SDS011;5192;50.328;7.610;2022-07-18T11:09:44;2.33;;;2.13;;
10293;SDS011;5192;50.328;7.610;2022-07-18T11:12:28;3.00;;;1.80;;
10293;SDS011;5192;50.328;7.610;2022-07-18T11:15:11;2.97;;;1.73;;
10293;SDS011;5192;50.328;7.610;2022-07-18T11:18:01;2.28;;;1.80;;
10293;SDS011;5192;50.328;7.610;2022-07-18T11:25:54;2.33;;;1.85;;
10293;SDS011;5192;50.328;7.610;2022-07-18T11:28:27;3.28;;;1.95;;
10293;SDS011;5192;50.328;7.610;2022-07-18T11:31:04;2.53;;;1.77;;
10293;SDS011;5192;50.328;7.610;2022-07-18T11:33:41;1.90;;;1.67;;
10293;SDS011;5192;50.328;7.610;2022-07-18T11:36:14;2.38;;;1.90;;
10293;SDS011;5192;50.328;7.610;2022-07-18T11:38:53;2.58;;;1.77;;
10293;SDS011;5192;50.328;7.610;2022-07-18T11:41:29;3.08;;;1.90;;
10293;SDS011;5192;50.328;7.610;2022-07-18T11:43:56;2.63;;;1.88;;
10293;SDS011;5192;50.328;7.610;2022-07-18T11:46:26;1.90;;;1.80;;
10293;SDS011;5192;50.328;7.610;2022-07-18T11:49:05;2.88;;;1.77;;
10293;SDS011;5192;50.328;7.610;2022-07-18T11:51:47;3.30;;;1.80;;
10293;SDS011;5192;50.328;7.610;2022-07-18T11:54:33;3.35;;;1.98;;
10293;SDS011;5192;50.328;7.610;2022-07-18T12:00:19;2.05;;;1.85;;
10293;SDS011;5192;50.328;7.610;2022-07-18T12:05:50;3.53;;;2.20;;
10293;SDS011;5192;50.328;7.610;2022-07-18T12:08:49;2.42;;;1.90;;
10293;SDS011;5192;50.328;7.610;2022-07-18T12:11:29;1.95;;;1.63;;
10293;SDS011;5192;50.328;7.610;2022-07-18T12:16:57;2.00;;;1.80;;
10293;SDS011;5192;50.328;7.610;2022-07-18T12:19:35;2.78;;;2.03;;
10293;SDS011;5192;50.328;7.610;2022-07-18T12:22:12;3.38;;;1.60;;
10293;SDS011;5192;50.328;7.610;2022-07-18T12:27:23;1.85;;;1.70;;
10293;SDS011;5192;50.328;7.610;2022-07-18T12:32:56;1.85;;;1.75;;
10293;SDS011;5192;50.328;7.610;2022-07-18T12:35:28;2.40;;;2.20;;
10293;SDS011;5192;50.328;7.610;2022-07-18T12:38:16;2.67;;;1.90;;
10293;SDS011;5192;50.328;7.610;2022-07-18T12:40:57;2.30;;;1.70;;
10293;SDS011;5192;50.328;7.610;2022-07-18T12:43:31;3.75;;;2.30;;
10293;SDS011;5192;50.328;7.610;2022-07-18T12:46:05;2.95;;;1.90;;
10293;SDS011;5192;50.328;7.610;2022-07-18T12:48:37;2.55;;;2.35;;
10293;SDS011;5192;50.328;7.610;2022-07-18T12:54:15;2.40;;;2.20;;
10293;SDS011;5192;50.328;7.610;2022-07-18T12:56:47;2.40;;;2.20;;
10293;SDS011;5192;50.328;7.610;2022-07-18T12:59:16;2.33;;;1.77;;
10293;SDS011;5192;50.328;7.610;2022-07-18T13:01:48;2.35;;;2.00;;
10293;SDS011;5192;50.328;7.610;2022-07-18T13:04:14;2.15;;;1.80;;
10293;SDS011;5192;50.328;7.610;2022-07-18T13:06:46;2.08;;;1.90;;
10293;SDS011;5192;50.328;7.610;2022-07-18T13:09:11;3.67;;;2.13;;
10293;SDS011;5192;50.328;7.610;2022-07-18T13:11:39;2.55;;;1.90;;
10293;SDS011;5192;50.328;7.610;2022-07-18T13:14:17;2.53;;;1.98;;
10293;SDS011;5192;50.328;7.610;2022-07-18T13:17:03;3.15;;;2.10;;
10293;SDS011;5192;50.328;7.610;2022-07-18T13:19:29;2.78;;;2.00;;
10293;SDS011;5192;50.328;7.610;2022-07-18T13:21:58;3.33;;;2.17;;
10293;SDS011;5192;50.328;7.610;2022-07-18T13:24:27;5.43;;;2.13;;
10293;SDS011;5192;50.328;7.610;2022-07-18T13:26:58;2.35;;;1.73;;
10293;SDS011;5192;50.328;7.610;2022-07-18T13:29:24;3.55;;;1.98;;
10293;SDS011;5192;50.328;7.610;2022-07-18T13:31:56;2.72;;;2.00;;
10293;SDS011;5192;50.328;7.610;2022-07-18T13:34:23;2.30;;;2.10;;
10293;SDS011;5192;50.328;7.610;2022-07-18T13:36:54;2.33;;;2.13;;
10293;SDS011;5192;50.328;7.610;2022-07-18T13:39:20;2.40;;;2.17;;
10293;SDS011;5192;50.328;7.610;2022-07-18T13:41:47;2.95;;;2.25;;
10293;SDS011;5192;50.328;7.610;2022-07-18T13:44:15;2.83;;;2.35;;
10293;SDS011;5192;50.328;7.610;2022-07-18T13:46:41;2.30;;;2.10;;
10293;SDS011;5192;50.328;7.610;2022-07-18T13:49:10;3.30;;;2.15;;
10293;SDS011;5192;50.328;7.610;2022-07-18T13:51:37;2.53;;;2.20;;
10293;SDS011;5192;50.328;7.610;2022-07-18T13:54:04;2.92;;;2.30;;
10293;SDS011;5192;50.328;7.610;2022-07-18T13:56:31;4.75;;;2.38;;
10293;SDS011;5192;50.328;7.610;2022-07-18T13:58:57;3.45;;;3.08;;
10293;SDS011;5192;50.328;7.610;2022-07-18T14:01:25;2.35;;;2.15;;
10293;SDS011;5192;50.328;7.610;2022-07-18T14:03:51;5.13;;;2.30;;
10293;SDS011;5192;50.328;7.610;2022-07-18T14:06:27;5.47;;;2.50;;
10293;SDS011;5192;50.328;7.610;2022-07-18T14:08:53;3.08;;;2.78;;
10293;SDS011;5192;50.328;7.610;2022-07-18T14:11:26;3.85;;;2.53;;
10293;SDS011;5192;50.328;7.610;2022-07-18T14:13:56;2.50;;;2.30;;
10293;SDS011;5192;50.328;7.610;2022-07-18T14:16:21;3.22;;;2.70;;
10293;SDS011;5192;50.328;7.610;2022-07-18T14:18:54;2.70;;;2.50;;
10293;SDS011;5192;50.328;7.610;2022-07-18T14:21:20;3.90;;;2.75;;
10293;SDS011;5192;50.328;7.610;2022-07-18T14:24:16;2.65;;;2.30;;
10293;SDS011;5192;50.328;7.610;2022-07-18T14:26:46;4.93;;;2.22;;
10293;SDS011;5192;50.328;7.610;2022-07-18T14:29:19;3.00;;;2.33;;
10293;SDS011;5192;50.328;7.610;2022-07-18T14:31:47;5.03;;;2.60;;
10293;SDS011;5192;50.328;7.610;2022-07-18T14:34:18;3.47;;;2.67;;
10293;SDS011;5192;50.328;7.610;2022-07-18T14:36:46;2.90;;;2.47;;
10293;SDS011;5192;50.328;7.610;2022-07-18T14:39:18;2.90;;;2.45;;
10293;SDS011;5192;50.328;7.610;2022-07-18T14:41:48;2.97;;;2.65;;
10293;SDS011;5192;50.328;7.610;2022-07-18T14:44:17;4.50;;;2.40;;
10293;SDS011;5192;50.328;7.610;2022-07-18T14:46:48;5.93;;;2.90;;
10293;SDS011;5192;50.328;7.610;2022-07-18T14:49:17;3.15;;;2.70;;
10293;SDS011;5192;50.328;7.610;2022-07-18T14:51:45;3.85;;;2.95;;
10293;SDS011;5192;50.328;7.610;2022-07-18T14:54:13;4.90;;;2.53;;
10293;SDS011;5192;50.328;7.610;2022-07-18T14:56:46;2.53;;;2.28;;
10293;SDS011;5192;50.328;7.610;2022-07-18T14:59:17;2.60;;;2.40;;
10293;SDS011;5192;50.328;7.610;2022-07-18T15:01:45;2.85;;;2.55;;
10293;SDS011;5192;50.328;7.610;2022-07-18T15:04:15;3.80;;;2.65;;
10293;SDS011;5192;50.328;7.610;2022-07-18T15:06:47;2.75;;;2.50;;
10293;SDS011;5192;50.328;7.610;2022-07-18T15:09:38;2.88;;;2.58;;
10293;SDS011;5192;50.328;7.610;2022-07-18T15:12:27;4.28;;;2.72;;
10293;SDS011;5192;50.328;7.610;2022-07-18T15:14:58;3.33;;;3.03;;
10293;SDS011;5192;50.328;7.610;2022-07-18T15:17:26;3.00;;;2.67;;
10293;SDS011;5192;50.328;7.610;2022-07-18T15:19:51;3.10;;;2.80;;
10293;SDS011;5192;50.328;7.610;2022-07-18T15:23:02;2.88;;;2.67;;
10293;SDS011;5192;50.328;7.610;2022-07-18T15:25:38;3.28;;;2.75;;
10293;SDS011;5192;50.328;7.610;2022-07-18T15:28:06;3.58;;;2.90;;
10293;SDS011;5192;50.328;7.610;2022-07-18T15:30:37;4.80;;;2.85;;
10293;SDS011;5192;50.328;7.610;2022-07-18T15:33:04;2.83;;;2.63;;
10293;SDS011;5192;50.328;7.610;2022-07-18T15:35:35;4.80;;;2.85;;
10293;SDS011;5192;50.328;7.610;2022-07-18T15:38:04;2.92;;;2.50;;
10293;SDS011;5192;50.328;7.610;2022-07-18T15:40:35;3.33;;;2.60;;
10293;SDS011;5192;50.328;7.610;2022-07-18T15:43:06;4.38;;;2.50;;
10293;SDS011;5192;50.328;7.610;2022-07-18T15:45:36;2.80;;;2.60;;
10293;SDS011;5192;50.328;7.610;2022-07-18T15:48:05;3.90;;;2.58;;
10293;SDS011;5192;50.328;7.610;2022-07-18T15:50:50;3.45;;;2.63;;
10293;SDS011;5192;50.328;7.610;2022-07-18T15:53:39;3.85;;;2.83;;
10293;SDS011;5192;50.328;7.610;2022-07-18T15:56:18;3.55;;;2.92;;
10293;SDS011;5192;50.328;7.610;2022-07-18T15:58:49;3.65;;;2.53;;
10293;SDS011;5192;50.328;7.610;2022-07-18T16:01:20;4.10;;;3.08;;
10293;SDS011;5192;50.328;7.610;2022-07-18T16:03:46;3.00;;;2.70;;
10293;SDS011;5192;50.328;7.610;2022-07-18T16:06:13;4.82;;;4.40;;